Unity Plaza, Connecticut
Current Conditions -  °F | °C
As of 3:53 AM on Saturday 25 Oct 2014 (Local Time) from KHFD Reporting Station
Clear Clear  
Wind Chill: 42°   Ceiling: Unl
Heat Index: 44°   Visibility: 10mi
Dew Point: 42°   Wind: 5mph
Humidity: 93%   Direction: 170°S
Pressure: 29.81"   Gusts: NA
Location:  41.7893°N, 72.6669°W
Report Text: KHFD 250753Z AUTO 17004KT 10SM CLR 07/06 A2981 RMK AO2 SLP094 T00670056
Loading
Personal Weather Stations






























Interactive Weather Map
Tropical Storm Tracking
New forecast layout! Learn more

10-Day Weather Forecast

Advertisements
Track Severe Weather on mobile